»·PEaware :: NKS1652 KBUR-KLAS

NKS1652 :: KBUR-KLAS

FLIGHT INFORMATION

Flight Status: Arrived
Operator:
Spirit Airlines
More flights by this operator :: More flights under this callsign
Pilot: Andrew D. (32435)
Aircraft: AIRBUS A320
(A320)
More flights by this aircraft type
Origin: KBUR Bob Hope-Burbank
United States
Destination: KLAS McCarran Intl
United States
More flights between these airports :: More routes between these airports
Route: +SLAPP2 MISEN KEPEC6
File this flight plan on PilotEdge
Remarks:
Altitude:
(Current/Filed)
31,000ft
Speed:
(Current/Filed)
450kts
Departed: 18-Nov-20 12:06 PM
Arrived: 18-Nov-20 12:49 PM
Distance/Time
Traveled:
194nm/0:43
Distance/Time
To Go:
Arrived

Flight Plot

Page will automatically refresh every two minutes.

Flight plan parsing failed; only flown route is shown


Map Options




Map Legend


Flown Route
Filed Route
Departure Airport
Arrival Airport
Navaid (VOR, NDB)
Fix

Horizontal Profiles

Position Reports

Time Latitude Longitude Heading Altitude Ground
Speed
18-Nov-20 11:26 34.196795 -118.352868 179 704ft 0kts
18-Nov-20 11:27 34.196795 -118.352868 179 704ft 0kts
18-Nov-20 11:28 34.196795 -118.352868 179 704ft 0kts
18-Nov-20 11:29 34.196795 -118.352868 179 704ft 0kts
18-Nov-20 11:30 34.196795 -118.352868 179 704ft 0kts
18-Nov-20 11:31 34.196795 -118.352868 179 704ft 0kts
18-Nov-20 11:32 34.196795 -118.352868 179 704ft 0kts
18-Nov-20 11:33 34.196795 -118.352868 179 704ft 0kts
18-Nov-20 11:34 34.196795 -118.352868 179 704ft 0kts
18-Nov-20 11:35 34.196795 -118.352868 179 704ft 0kts
18-Nov-20 11:36 34.196795 -118.352868 179 704ft 0kts
18-Nov-20 11:37 34.196795 -118.352868 179 704ft 0kts
18-Nov-20 11:38 34.196795 -118.352868 179 704ft 0kts
18-Nov-20 11:39 34.196795 -118.352868 179 704ft 0kts
18-Nov-20 11:40 34.196795 -118.352868 179 704ft 0kts
18-Nov-20 11:41 34.196795 -118.352868 179 704ft 0kts
18-Nov-20 11:42 34.196795 -118.352868 179 704ft 0kts
18-Nov-20 11:43 34.196795 -118.352868 179 704ft 0kts
18-Nov-20 11:44 34.196795 -118.352868 179 704ft 0kts
18-Nov-20 11:45 34.196795 -118.352868 179 704ft 0kts
18-Nov-20 11:46 34.196795 -118.352868 179 704ft 0kts
18-Nov-20 11:47 34.196795 -118.352868 179 704ft 0kts
18-Nov-20 11:48 34.196795 -118.352868 179 704ft 0kts
18-Nov-20 11:49 34.196795 -118.352868 179 704ft 0kts
18-Nov-20 11:50 34.196803 -118.352868 182 704ft 0kts
18-Nov-20 11:51 34.197000 -118.353299 116 705ft 2kts
18-Nov-20 11:52 34.197115 -118.353579 116 705ft 0kts
18-Nov-20 11:53 34.197115 -118.353579 116 705ft 0kts
18-Nov-20 11:54 34.197142 -118.352462 329 703ft 3kts
18-Nov-20 11:55 34.197175 -118.352572 273 703ft 0kts
18-Nov-20 11:56 34.197175 -118.352572 273 703ft 0kts
18-Nov-20 11:57 34.197175 -118.352572 273 703ft 0kts
18-Nov-20 11:58 34.197175 -118.352574 273 703ft 0kts
18-Nov-20 11:59 34.197254 -118.354515 272 708ft 9kts
18-Nov-20 12:00 34.200301 -118.355782 347 718ft 15kts
18-Nov-20 12:01 34.203462 -118.356649 346 731ft 7kts
18-Nov-20 12:02 34.207855 -118.357879 347 753ft 18kts
18-Nov-20 12:03 34.211498 -118.358983 316 768ft 6kts
18-Nov-20 12:04 34.211518 -118.359007 314 768ft 0kts
18-Nov-20 12:05 34.203575 -118.358039 167 738ft 136kts
18-Nov-20 12:06 34.165480 -118.375855 222 3568ft 190kts
18-Nov-20 12:07 34.135487 -118.440353 287 4592ft 263kts
18-Nov-20 12:08 34.199865 -118.476450 353 7999ft 283kts
18-Nov-20 12:09 34.279929 -118.482507 353 9003ft 290kts
18-Nov-20 12:10 34.360286 -118.487728 2 9305ft 297kts
18-Nov-20 12:11 34.423582 -118.411695 58 11245ft 379kts
18-Nov-20 12:12 34.489568 -118.305953 36 14314ft 395kts
18-Nov-20 12:13 34.578006 -118.217589 36 16626ft 428kts
18-Nov-20 12:14 34.665161 -118.116783 65 18846ft 445kts
18-Nov-20 12:15 34.691356 -117.970776 85 19161ft 441kts
18-Nov-20 12:16 34.700760 -117.820903 88 20631ft 452kts
18-Nov-20 12:17 34.708302 -117.666435 89 22655ft 465kts
18-Nov-20 12:18 34.716087 -117.506926 79 24510ft 480kts
18-Nov-20 12:19 34.756190 -117.350716 71 26348ft 491kts
18-Nov-20 12:20 34.798689 -117.190276 72 27811ft 504kts
18-Nov-20 12:22 34.841972 -117.025791 72 29142ft 517kts
18-Nov-20 12:23 34.885831 -116.858110 72 30737ft 519kts
18-Nov-20 12:24 34.937748 -116.695513 53 31042ft 508kts
18-Nov-20 12:25 35.016239 -116.556988 53 27028ft 491kts
18-Nov-20 12:26 35.089559 -116.426827 53 24520ft 449kts
18-Nov-20 12:27 35.175859 -116.312076 42 24103ft 478kts
18-Nov-20 12:28 35.265409 -116.199646 43 21042ft 448kts
18-Nov-20 12:29 35.349820 -116.093402 43 19186ft 405kts
18-Nov-20 12:30 35.429115 -115.993291 43 17626ft 402kts
18-Nov-20 12:31 35.506937 -115.894689 43 16081ft 394kts
18-Nov-20 12:32 35.582161 -115.799120 43 14603ft 385kts
18-Nov-20 12:33 35.655769 -115.705334 43 13231ft 373kts
18-Nov-20 12:34 35.725679 -115.616061 43 13035ft 359kts
18-Nov-20 12:35 35.810283 -115.571753 353 13033ft 332kts
18-Nov-20 12:36 35.903055 -115.567312 353 13018ft 333kts
18-Nov-20 12:37 35.985961 -115.525784 65 12622ft 357kts
18-Nov-20 12:37 36.014381 -115.430347 70 11356ft 348kts
18-Nov-20 12:39 36.026724 -115.306364 101 10259ft 297kts
18-Nov-20 12:39 36.020549 -115.224301 99 9223ft 282kts
18-Nov-20 12:41 36.014197 -115.112694 99 7585ft 282kts
18-Nov-20 12:41 36.010546 -115.036853 95 6451ft 252kts
18-Nov-20 12:43 36.015328 -114.943663 51 5225ft 225kts
18-Nov-20 12:43 36.057230 -114.947834 311 4637ft 202kts
18-Nov-20 12:44 36.073916 -115.000731 263 3960ft 149kts
18-Nov-20 12:45 36.073752 -115.047244 263 3321ft 126kts
18-Nov-20 12:46 36.073741 -115.092653 261 2628ft 133kts
18-Nov-20 12:47 36.073642 -115.137045 269 2081ft 117kts
18-Nov-20 12:48 36.074365 -115.149762 299 2119ft 13kts
18-Nov-20 12:49 36.075034 -115.150991 313 2123ft 1kts
18-Nov-20 12:50 36.075239 -115.151226 321 2123ft 0kts
18-Nov-20 12:51 36.075244 -115.151231 322 2123ft 0kts
18-Nov-20 12:52 36.077645 -115.152637 334 2124ft 2kts
18-Nov-20 12:53 36.081165 -115.154429 10 2122ft 17kts
18-Nov-20 12:54 36.082520 -115.153579 65 2116ft 0kts

Navigation Log

Ident Type
Flight plan parsing failed, navigation log unavailable